sensor_id;sensor_type;location;lat;lon;timestamp;temperature;humidity
5017;DHT22;2527;50.892;16.706;2023-10-08T00:02:24;17.30;99.90
5017;DHT22;2527;50.892;16.706;2023-10-08T00:04:51;17.20;99.90
5017;DHT22;2527;50.892;16.706;2023-10-08T00:07:25;17.20;99.90
5017;DHT22;2527;50.892;16.706;2023-10-08T00:09:52;17.10;99.90
5017;DHT22;2527;50.892;16.706;2023-10-08T00:12:18;17.10;99.90
5017;DHT22;2527;50.892;16.706;2023-10-08T00:14:45;17.00;99.90
5017;DHT22;2527;50.892;16.706;2023-10-08T00:17:12;16.90;99.90
5017;DHT22;2527;50.892;16.706;2023-10-08T00:19:38;16.80;99.90
5017;DHT22;2527;50.892;16.706;2023-10-08T00:22:05;16.80;99.90
5017;DHT22;2527;50.892;16.706;2023-10-08T00:24:35;16.70;99.90
5017;DHT22;2527;50.892;16.706;2023-10-08T00:27:03;16.60;99.90
5017;DHT22;2527;50.892;16.706;2023-10-08T00:29:32;16.60;99.90
5017;DHT22;2527;50.892;16.706;2023-10-08T00:31:57;16.50;99.90
5017;DHT22;2527;50.892;16.706;2023-10-08T00:34:24;16.50;99.90
5017;DHT22;2527;50.892;16.706;2023-10-08T00:36:50;16.40;99.90
5017;DHT22;2527;50.892;16.706;2023-10-08T00:39:16;16.40;99.90
5017;DHT22;2527;50.892;16.706;2023-10-08T00:41:48;16.40;99.90
5017;DHT22;2527;50.892;16.706;2023-10-08T00:44:15;16.30;99.90
5017;DHT22;2527;50.892;16.706;2023-10-08T00:46:47;16.20;99.90
5017;DHT22;2527;50.892;16.706;2023-10-08T00:49:14;16.20;99.90
5017;DHT22;2527;50.892;16.706;2023-10-08T00:51:50;16.10;99.90
5017;DHT22;2527;50.892;16.706;2023-10-08T00:54:38;16.10;99.90
5017;DHT22;2527;50.892;16.706;2023-10-08T00:57:25;16.00;99.90
5017;DHT22;2527;50.892;16.706;2023-10-08T00:59:52;16.00;99.90
5017;DHT22;2527;50.892;16.706;2023-10-08T01:02:22;15.90;99.90
5017;DHT22;2527;50.892;16.706;2023-10-08T01:04:52;15.90;99.90
5017;DHT22;2527;50.892;16.706;2023-10-08T01:07:19;15.90;99.90
5017;DHT22;2527;50.892;16.706;2023-10-08T01:09:46;15.90;99.90
5017;DHT22;2527;50.892;16.706;2023-10-08T01:12:17;15.80;99.90
5017;DHT22;2527;50.892;16.706;2023-10-08T01:14:45;15.80;99.90
5017;DHT22;2527;50.892;16.706;2023-10-08T01:17:15;15.80;99.90
5017;DHT22;2527;50.892;16.706;2023-10-08T01:19:44;15.80;99.90
5017;DHT22;2527;50.892;16.706;2023-10-08T01:22:13;15.80;99.90
5017;DHT22;2527;50.892;16.706;2023-10-08T01:24:48;15.70;99.90
5017;DHT22;2527;50.892;16.706;2023-10-08T01:27:18;15.70;99.90
5017;DHT22;2527;50.892;16.706;2023-10-08T01:29:52;15.70;99.90
5017;DHT22;2527;50.892;16.706;2023-10-08T01:32:18;15.70;99.90
5017;DHT22;2527;50.892;16.706;2023-10-08T01:34:45;15.70;99.90
5017;DHT22;2527;50.892;16.706;2023-10-08T01:37:15;15.70;99.90
5017;DHT22;2527;50.892;16.706;2023-10-08T01:39:47;15.60;99.90
5017;DHT22;2527;50.892;16.706;2023-10-08T01:42:16;15.60;99.90
5017;DHT22;2527;50.892;16.706;2023-10-08T01:44:46;15.60;99.90
5017;DHT22;2527;50.892;16.706;2023-10-08T01:47:16;15.60;99.90
5017;DHT22;2527;50.892;16.706;2023-10-08T01:49:45;15.60;99.90
5017;DHT22;2527;50.892;16.706;2023-10-08T01:52:14;15.50;99.90
5017;DHT22;2527;50.892;16.706;2023-10-08T01:54:47;15.50;99.90
5017;DHT22;2527;50.892;16.706;2023-10-08T01:57:13;16.20;99.90
5017;DHT22;2527;50.892;16.706;2023-10-08T01:59:40;15.50;99.90
5017;DHT22;2527;50.892;16.706;2023-10-08T02:02:06;15.50;99.90
5017;DHT22;2527;50.892;16.706;2023-10-08T02:04:35;15.50;99.90
5017;DHT22;2527;50.892;16.706;2023-10-08T02:07:01;15.50;99.90
5017;DHT22;2527;50.892;16.706;2023-10-08T02:09:32;15.40;99.90
5017;DHT22;2527;50.892;16.706;2023-10-08T02:11:58;15.40;99.90
5017;DHT22;2527;50.892;16.706;2023-10-08T02:14:24;15.40;99.90
5017;DHT22;2527;50.892;16.706;2023-10-08T02:16:50;15.40;99.90
5017;DHT22;2527;50.892;16.706;2023-10-08T02:19:24;15.40;99.90
5017;DHT22;2527;50.892;16.706;2023-10-08T02:21:54;15.40;99.90
5017;DHT22;2527;50.892;16.706;2023-10-08T02:24:20;15.40;99.90
5017;DHT22;2527;50.892;16.706;2023-10-08T02:26:47;15.40;99.90
5017;DHT22;2527;50.892;16.706;2023-10-08T02:29:13;15.30;99.90
5017;DHT22;2527;50.892;16.706;2023-10-08T02:31:42;15.30;99.90
5017;DHT22;2527;50.892;16.706;2023-10-08T02:34:09;15.30;99.90
5017;DHT22;2527;50.892;16.706;2023-10-08T02:36:35;15.30;99.90
5017;DHT22;2527;50.892;16.706;2023-10-08T02:39:06;15.20;99.90
5017;DHT22;2527;50.892;16.706;2023-10-08T02:41:42;14.60;99.90
5017;DHT22;2527;50.892;16.706;2023-10-08T02:44:08;15.20;99.90
5017;DHT22;2527;50.892;16.706;2023-10-08T02:46:38;15.10;99.90
5017;DHT22;2527;50.892;16.706;2023-10-08T02:49:07;15.20;99.90
5017;DHT22;2527;50.892;16.706;2023-10-08T02:51:36;15.10;99.90
5017;DHT22;2527;50.892;16.706;2023-10-08T02:54:02;15.10;99.90
5017;DHT22;2527;50.892;16.706;2023-10-08T02:56:32;15.10;99.90
5017;DHT22;2527;50.892;16.706;2023-10-08T02:58:58;15.00;99.90
5017;DHT22;2527;50.892;16.706;2023-10-08T03:01:25;15.00;99.90
5017;DHT22;2527;50.892;16.706;2023-10-08T03:03:51;15.00;99.90
5017;DHT22;2527;50.892;16.706;2023-10-08T03:06:27;14.90;99.90
5017;DHT22;2527;50.892;16.706;2023-10-08T03:08:52;14.90;99.90
5017;DHT22;2527;50.892;16.706;2023-10-08T03:11:18;14.90;99.90
5017;DHT22;2527;50.892;16.706;2023-10-08T03:13:44;14.90;99.90
5017;DHT22;2527;50.892;16.706;2023-10-08T03:16:12;14.90;99.90
5017;DHT22;2527;50.892;16.706;2023-10-08T03:18:39;14.80;99.90
5017;DHT22;2527;50.892;16.706;2023-10-08T03:21:10;14.80;99.90
5017;DHT22;2527;50.892;16.706;2023-10-08T03:23:59;14.70;99.90
5017;DHT22;2527;50.892;16.706;2023-10-08T03:26:25;14.70;99.90
5017;DHT22;2527;50.892;16.706;2023-10-08T03:28:56;14.60;99.90
5017;DHT22;2527;50.892;16.706;2023-10-08T03:31:24;14.60;99.90
5017;DHT22;2527;50.892;16.706;2023-10-08T03:34:09;14.60;99.90
5017;DHT22;2527;50.892;16.706;2023-10-08T03:36:39;14.60;99.90
5017;DHT22;2527;50.892;16.706;2023-10-08T03:39:16;14.60;99.90
5017;DHT22;2527;50.892;16.706;2023-10-08T03:41:45;14.50;99.90
5017;DHT22;2527;50.892;16.706;2023-10-08T03:44:31;14.50;99.90
5017;DHT22;2527;50.892;16.706;2023-10-08T03:46:57;14.50;99.90
5017;DHT22;2527;50.892;16.706;2023-10-08T03:49:23;14.50;99.90
5017;DHT22;2527;50.892;16.706;2023-10-08T03:51:49;14.40;99.90
5017;DHT22;2527;50.892;16.706;2023-10-08T03:54:20;14.50;99.90
5017;DHT22;2527;50.892;16.706;2023-10-08T03:56:59;14.40;99.90
5017;DHT22;2527;50.892;16.706;2023-10-08T03:59:26;14.40;99.90
5017;DHT22;2527;50.892;16.706;2023-10-08T04:02:02;14.40;99.90
5017;DHT22;2527;50.892;16.706;2023-10-08T04:04:50;14.40;99.90
5017;DHT22;2527;50.892;16.706;2023-10-08T04:07:22;14.40;99.90
5017;DHT22;2527;50.892;16.706;2023-10-08T04:10:03;14.40;99.90
5017;DHT22;2527;50.892;16.706;2023-10-08T04:12:36;14.30;99.90
5017;DHT22;2527;50.892;16.706;2023-10-08T04:15:07;14.30;99.90
5017;DHT22;2527;50.892;16.706;2023-10-08T04:17:33;14.30;99.90
5017;DHT22;2527;50.892;16.706;2023-10-08T04:20:09;14.30;99.90
5017;DHT22;2527;50.892;16.706;2023-10-08T04:22:54;14.20;99.90
5017;DHT22;2527;50.892;16.706;2023-10-08T04:25:20;14.20;99.90
5017;DHT22;2527;50.892;16.706;2023-10-08T04:27:45;14.20;99.90
5017;DHT22;2527;50.892;16.706;2023-10-08T04:30:15;14.20;99.90
5017;DHT22;2527;50.892;16.706;2023-10-08T04:32:41;14.20;99.90
5017;DHT22;2527;50.892;16.706;2023-10-08T04:35:07;14.20;99.90
5017;DHT22;2527;50.892;16.706;2023-10-08T04:37:34;14.20;99.90
5017;DHT22;2527;50.892;16.706;2023-10-08T04:39:59;14.20;99.90
5017;DHT22;2527;50.892;16.706;2023-10-08T04:42:25;14.20;99.90
5017;DHT22;2527;50.892;16.706;2023-10-08T04:44:51;14.10;99.90
5017;DHT22;2527;50.892;16.706;2023-10-08T04:47:17;14.10;99.90
5017;DHT22;2527;50.892;16.706;2023-10-08T04:49:59;14.10;99.90
5017;DHT22;2527;50.892;16.706;2023-10-08T04:52:25;14.10;99.90
5017;DHT22;2527;50.892;16.706;2023-10-08T04:54:53;14.10;99.90
5017;DHT22;2527;50.892;16.706;2023-10-08T04:57:20;14.10;99.90
5017;DHT22;2527;50.892;16.706;2023-10-08T04:59:48;14.00;99.90
5017;DHT22;2527;50.892;16.706;2023-10-08T05:02:15;14.00;99.90
5017;DHT22;2527;50.892;16.706;2023-10-08T05:04:44;14.00;99.90
5017;DHT22;2527;50.892;16.706;2023-10-08T05:07:12;14.00;99.90
5017;DHT22;2527;50.892;16.706;2023-10-08T05:10:16;13.90;99.90
5017;DHT22;2527;50.892;16.706;2023-10-08T05:12:52;13.90;99.90
5017;DHT22;2527;50.892;16.706;2023-10-08T05:15:32;13.90;99.90
5017;DHT22;2527;50.892;16.706;2023-10-08T05:17:59;13.90;99.90
5017;DHT22;2527;50.892;16.706;2023-10-08T05:20:38;13.90;99.90
5017;DHT22;2527;50.892;16.706;2023-10-08T05:23:24;13.90;99.90
5017;DHT22;2527;50.892;16.706;2023-10-08T05:25:51;13.90;99.90
5017;DHT22;2527;50.892;16.706;2023-10-08T05:28:24;13.90;99.90
5017;DHT22;2527;50.892;16.706;2023-10-08T05:30:50;13.90;99.90
5017;DHT22;2527;50.892;16.706;2023-10-08T05:33:20;13.90;99.90
5017;DHT22;2527;50.892;16.706;2023-10-08T05:36:05;13.80;99.90
5017;DHT22;2527;50.892;16.706;2023-10-08T05:38:43;13.80;99.90
5017;DHT22;2527;50.892;16.706;2023-10-08T05:41:26;13.80;99.90
5017;DHT22;2527;50.892;16.706;2023-10-08T05:44:05;13.80;99.90
5017;DHT22;2527;50.892;16.706;2023-10-08T05:46:49;13.80;99.90
5017;DHT22;2527;50.892;16.706;2023-10-08T05:49:35;13.80;99.90
5017;DHT22;2527;50.892;16.706;2023-10-08T05:52:01;13.80;99.90
5017;DHT22;2527;50.892;16.706;2023-10-08T05:54:30;13.80;99.90
5017;DHT22;2527;50.892;16.706;2023-10-08T05:56:57;13.80;99.90
5017;DHT22;2527;50.892;16.706;2023-10-08T05:59:44;13.80;99.90
5017;DHT22;2527;50.892;16.706;2023-10-08T06:02:23;13.80;99.90
5017;DHT22;2527;50.892;16.706;2023-10-08T06:05:14;13.80;99.90
5017;DHT22;2527;50.892;16.706;2023-10-08T06:07:52;13.80;99.90
5017;DHT22;2527;50.892;16.706;2023-10-08T06:10:24;13.80;99.90
5017;DHT22;2527;50.892;16.706;2023-10-08T06:15:48;13.80;99.90
5017;DHT22;2527;50.892;16.706;2023-10-08T06:18:31;13.80;99.90
5017;DHT22;2527;50.892;16.706;2023-10-08T06:23:26;13.80;99.90
5017;DHT22;2527;50.892;16.706;2023-10-08T06:25:53;13.80;99.90
5017;DHT22;2527;50.892;16.706;2023-10-08T06:28:22;13.80;99.90
5017;DHT22;2527;50.892;16.706;2023-10-08T06:30:51;13.80;99.90
5017;DHT22;2527;50.892;16.706;2023-10-08T06:33:20;13.80;99.90
5017;DHT22;2527;50.892;16.706;2023-10-08T06:35:50;13.70;99.90
5017;DHT22;2527;50.892;16.706;2023-10-08T06:38:56;13.80;99.90
5017;DHT22;2527;50.892;16.706;2023-10-08T06:41:24;13.80;99.90
5017;DHT22;2527;50.892;16.706;2023-10-08T06:43:58;13.80;99.90
5017;DHT22;2527;50.892;16.706;2023-10-08T06:46:39;13.80;99.90
5017;DHT22;2527;50.892;16.706;2023-10-08T06:49:06;13.80;99.90
5017;DHT22;2527;50.892;16.706;2023-10-08T06:51:37;13.80;99.90
5017;DHT22;2527;50.892;16.706;2023-10-08T06:54:03;13.80;99.90
5017;DHT22;2527;50.892;16.706;2023-10-08T06:56:29;13.90;99.90
5017;DHT22;2527;50.892;16.706;2023-10-08T06:58:57;13.90;99.90
5017;DHT22;2527;50.892;16.706;2023-10-08T07:01:24;13.90;99.90
5017;DHT22;2527;50.892;16.706;2023-10-08T07:03:56;15.10;99.90
5017;DHT22;2527;50.892;16.706;2023-10-08T07:06:29;13.90;99.90
5017;DHT22;2527;50.892;16.706;2023-10-08T07:09:00;14.00;99.90
5017;DHT22;2527;50.892;16.706;2023-10-08T07:11:30;14.00;99.90
5017;DHT22;2527;50.892;16.706;2023-10-08T07:14:04;14.00;99.90
5017;DHT22;2527;50.892;16.706;2023-10-08T07:16:30;14.00;99.90
5017;DHT22;2527;50.892;16.706;2023-10-08T07:18:55;14.10;99.90
5017;DHT22;2527;50.892;16.706;2023-10-08T07:21:27;14.10;99.90
5017;DHT22;2527;50.892;16.706;2023-10-08T07:24:10;14.20;99.90
5017;DHT22;2527;50.892;16.706;2023-10-08T07:26:40;14.20;99.90
5017;DHT22;2527;50.892;16.706;2023-10-08T07:29:12;14.20;99.90
5017;DHT22;2527;50.892;16.706;2023-10-08T07:31:43;14.30;99.90
5017;DHT22;2527;50.892;16.706;2023-10-08T07:34:14;14.40;99.90
5017;DHT22;2527;50.892;16.706;2023-10-08T07:36:43;14.50;99.90
5017;DHT22;2527;50.892;16.706;2023-10-08T07:39:09;14.50;99.90
5017;DHT22;2527;50.892;16.706;2023-10-08T07:41:52;14.60;99.90
5017;DHT22;2527;50.892;16.706;2023-10-08T07:44:19;14.60;99.90
5017;DHT22;2527;50.892;16.706;2023-10-08T07:46:49;14.60;99.90
5017;DHT22;2527;50.892;16.706;2023-10-08T07:49:15;14.50;99.90
5017;DHT22;2527;50.892;16.706;2023-10-08T07:51:41;14.60;99.90
5017;DHT22;2527;50.892;16.706;2023-10-08T07:54:07;14.50;99.90
5017;DHT22;2527;50.892;16.706;2023-10-08T07:56:42;14.60;99.90
5017;DHT22;2527;50.892;16.706;2023-10-08T07:59:08;14.70;99.90
5017;DHT22;2527;50.892;16.706;2023-10-08T08:01:34;14.80;99.90
5017;DHT22;2527;50.892;16.706;2023-10-08T08:04:03;15.00;99.90
5017;DHT22;2527;50.892;16.706;2023-10-08T08:06:29;15.20;99.90
5017;DHT22;2527;50.892;16.706;2023-10-08T08:09:00;15.20;99.90
5017;DHT22;2527;50.892;16.706;2023-10-08T08:11:25;15.40;99.90
5017;DHT22;2527;50.892;16.706;2023-10-08T08:13:51;15.50;99.90
5017;DHT22;2527;50.892;16.706;2023-10-08T08:16:18;15.50;99.90
5017;DHT22;2527;50.892;16.706;2023-10-08T08:18:46;15.50;99.90
5017;DHT22;2527;50.892;16.706;2023-10-08T08:21:14;15.50;99.90
5017;DHT22;2527;50.892;16.706;2023-10-08T08:23:41;15.40;99.90
5017;DHT22;2527;50.892;16.706;2023-10-08T08:26:13;15.40;99.90
5017;DHT22;2527;50.892;16.706;2023-10-08T08:28:59;15.50;99.90
5017;DHT22;2527;50.892;16.706;2023-10-08T08:31:27;15.60;99.90
5017;DHT22;2527;50.892;16.706;2023-10-08T08:33:57;15.80;99.90
5017;DHT22;2527;50.892;16.706;2023-10-08T08:36:28;15.90;99.90
5017;DHT22;2527;50.892;16.706;2023-10-08T08:38:54;16.10;99.90
5017;DHT22;2527;50.892;16.706;2023-10-08T08:41:20;16.10;99.90
5017;DHT22;2527;50.892;16.706;2023-10-08T08:43:52;16.10;99.90
5017;DHT22;2527;50.892;16.706;2023-10-08T08:46:31;16.10;99.90
5017;DHT22;2527;50.892;16.706;2023-10-08T08:49:00;15.90;99.90
5017;DHT22;2527;50.892;16.706;2023-10-08T08:51:25;15.90;99.90
5017;DHT22;2527;50.892;16.706;2023-10-08T08:53:51;16.00;99.90
5017;DHT22;2527;50.892;16.706;2023-10-08T08:56:17;16.10;99.90
5017;DHT22;2527;50.892;16.706;2023-10-08T08:58:43;16.20;99.90
5017;DHT22;2527;50.892;16.706;2023-10-08T09:01:11;16.20;99.90
5017;DHT22;2527;50.892;16.706;2023-10-08T09:03:38;16.30;99.90
5017;DHT22;2527;50.892;16.706;2023-10-08T09:06:05;16.40;99.90
5017;DHT22;2527;50.892;16.706;2023-10-08T09:08:34;18.30;99.90
5017;DHT22;2527;50.892;16.706;2023-10-08T09:11:00;16.50;99.90
5017;DHT22;2527;50.892;16.706;2023-10-08T09:13:34;16.50;99.90
5017;DHT22;2527;50.892;16.706;2023-10-08T09:16:17;16.50;99.90
5017;DHT22;2527;50.892;16.706;2023-10-08T09:18:46;16.40;99.90
5017;DHT22;2527;50.892;16.706;2023-10-08T09:21:16;16.30;99.90
5017;DHT22;2527;50.892;16.706;2023-10-08T09:23:44;16.30;99.90
5017;DHT22;2527;50.892;16.706;2023-10-08T09:26:15;16.30;99.90
5017;DHT22;2527;50.892;16.706;2023-10-08T09:28:45;16.30;99.90
5017;DHT22;2527;50.892;16.706;2023-10-08T09:31:16;16.30;99.90
5017;DHT22;2527;50.892;16.706;2023-10-08T09:33:55;16.30;99.90
5017;DHT22;2527;50.892;16.706;2023-10-08T09:36:21;16.30;99.90
5017;DHT22;2527;50.892;16.706;2023-10-08T09:39:00;16.40;99.90
5017;DHT22;2527;50.892;16.706;2023-10-08T09:41:27;16.40;99.90
5017;DHT22;2527;50.892;16.706;2023-10-08T09:43:57;16.40;99.90
5017;DHT22;2527;50.892;16.706;2023-10-08T09:46:31;16.50;99.90
5017;DHT22;2527;50.892;16.706;2023-10-08T09:49:00;16.50;99.90
5017;DHT22;2527;50.892;16.706;2023-10-08T09:51:28;16.50;99.90
5017;DHT22;2527;50.892;16.706;2023-10-08T09:56:24;16.50;99.90
5017;DHT22;2527;50.892;16.706;2023-10-08T09:58:50;16.50;99.90
5017;DHT22;2527;50.892;16.706;2023-10-08T10:01:17;16.50;99.90
5017;DHT22;2527;50.892;16.706;2023-10-08T10:03:44;16.40;99.90
5017;DHT22;2527;50.892;16.706;2023-10-08T10:06:14;16.40;99.90
5017;DHT22;2527;50.892;16.706;2023-10-08T10:08:45;16.40;99.90
5017;DHT22;2527;50.892;16.706;2023-10-08T10:11:11;16.40;99.90
5017;DHT22;2527;50.892;16.706;2023-10-08T10:13:41;16.30;99.90
5017;DHT22;2527;50.892;16.706;2023-10-08T10:16:07;16.30;99.90
5017;DHT22;2527;50.892;16.706;2023-10-08T10:18:34;16.30;99.90
5017;DHT22;2527;50.892;16.706;2023-10-08T10:23:36;16.30;99.90
5017;DHT22;2527;50.892;16.706;2023-10-08T10:26:03;16.30;99.90
5017;DHT22;2527;50.892;16.706;2023-10-08T10:28:29;16.30;99.90
5017;DHT22;2527;50.892;16.706;2023-10-08T10:30:55;16.20;99.90
5017;DHT22;2527;50.892;16.706;2023-10-08T10:33:29;16.20;99.90
5017;DHT22;2527;50.892;16.706;2023-10-08T10:35:54;16.10;99.90
5017;DHT22;2527;50.892;16.706;2023-10-08T10:38:21;16.10;99.90
5017;DHT22;2527;50.892;16.706;2023-10-08T10:40:51;16.10;99.90
5017;DHT22;2527;50.892;16.706;2023-10-08T10:43:27;16.10;99.90
5017;DHT22;2527;50.892;16.706;2023-10-08T10:45:59;16.10;99.90
5017;DHT22;2527;50.892;16.706;2023-10-08T10:48:31;16.20;99.90
5017;DHT22;2527;50.892;16.706;2023-10-08T10:51:00;16.20;99.90
5017;DHT22;2527;50.892;16.706;2023-10-08T10:53:32;16.30;99.90
5017;DHT22;2527;50.892;16.706;2023-10-08T10:55:58;16.20;99.90
5017;DHT22;2527;50.892;16.706;2023-10-08T10:58:31;16.30;99.90
5017;DHT22;2527;50.892;16.706;2023-10-08T11:01:04;16.20;99.90
5017;DHT22;2527;50.892;16.706;2023-10-08T11:03:41;16.20;99.90
5017;DHT22;2527;50.892;16.706;2023-10-08T11:06:10;16.20;99.90
5017;DHT22;2527;50.892;16.706;2023-10-08T11:08:40;16.20;99.90
5017;DHT22;2527;50.892;16.706;2023-10-08T11:11:11;16.10;99.90
5017;DHT22;2527;50.892;16.706;2023-10-08T11:13:37;16.10;99.90
5017;DHT22;2527;50.892;16.706;2023-10-08T11:16:05;16.00;99.90
5017;DHT22;2527;50.892;16.706;2023-10-08T11:18:33;16.00;99.90
5017;DHT22;2527;50.892;16.706;2023-10-08T11:21:09;16.00;99.90
5017;DHT22;2527;50.892;16.706;2023-10-08T11:23:49;15.90;99.90
5017;DHT22;2527;50.892;16.706;2023-10-08T11:26:19;15.90;99.90
5017;DHT22;2527;50.892;16.706;2023-10-08T11:29:01;15.90;99.90
5017;DHT22;2527;50.892;16.706;2023-10-08T11:31:28;15.80;99.90
5017;DHT22;2527;50.892;16.706;2023-10-08T11:33:59;15.80;99.90
5017;DHT22;2527;50.892;16.706;2023-10-08T11:36:25;15.80;99.90
5017;DHT22;2527;50.892;16.706;2023-10-08T11:39:08;15.80;99.90
5017;DHT22;2527;50.892;16.706;2023-10-08T11:41:35;15.80;99.90
5017;DHT22;2527;50.892;16.706;2023-10-08T11:44:15;15.80;99.90
5017;DHT22;2527;50.892;16.706;2023-10-08T11:46:45;15.80;99.90
5017;DHT22;2527;50.892;16.706;2023-10-08T11:49:11;15.80;99.90
5017;DHT22;2527;50.892;16.706;2023-10-08T11:51:51;15.80;99.90
5017;DHT22;2527;50.892;16.706;2023-10-08T11:54:17;15.80;99.90
5017;DHT22;2527;50.892;16.706;2023-10-08T11:56:45;15.80;99.90
5017;DHT22;2527;50.892;16.706;2023-10-08T11:59:12;15.80;99.90
5017;DHT22;2527;50.892;16.706;2023-10-08T12:01:38;17.20;99.90
5017;DHT22;2527;50.892;16.706;2023-10-08T12:04:07;15.70;99.90
5017;DHT22;2527;50.892;16.706;2023-10-08T12:06:43;15.80;99.90
5017;DHT22;2527;50.892;16.706;2023-10-08T12:09:18;15.70;99.90
5017;DHT22;2527;50.892;16.706;2023-10-08T12:11:48;15.70;99.90
5017;DHT22;2527;50.892;16.706;2023-10-08T12:14:14;15.70;99.90
5017;DHT22;2527;50.892;16.706;2023-10-08T12:16:40;15.70;99.90
5017;DHT22;2527;50.892;16.706;2023-10-08T12:19:07;15.60;99.90
5017;DHT22;2527;50.892;16.706;2023-10-08T12:21:42;15.60;99.90
5017;DHT22;2527;50.892;16.706;2023-10-08T12:24:11;15.60;99.90
5017;DHT22;2527;50.892;16.706;2023-10-08T12:26:38;15.50;99.90
5017;DHT22;2527;50.892;16.706;2023-10-08T12:29:07;15.60;99.90
5017;DHT22;2527;50.892;16.706;2023-10-08T12:31:33;15.50;99.90
5017;DHT22;2527;50.892;16.706;2023-10-08T12:33:59;15.50;99.90
5017;DHT22;2527;50.892;16.706;2023-10-08T12:36:26;15.50;99.90
5017;DHT22;2527;50.892;16.706;2023-10-08T12:38:52;15.50;99.90
5017;DHT22;2527;50.892;16.706;2023-10-08T12:41:23;15.50;99.90
5017;DHT22;2527;50.892;16.706;2023-10-08T12:43:50;15.60;99.90
5017;DHT22;2527;50.892;16.706;2023-10-08T12:46:22;15.50;99.90
5017;DHT22;2527;50.892;16.706;2023-10-08T12:48:52;14.80;99.90
5017;DHT22;2527;50.892;16.706;2023-10-08T12:51:19;15.50;99.90
5017;DHT22;2527;50.892;16.706;2023-10-08T12:53:52;15.50;99.90
5017;DHT22;2527;50.892;16.706;2023-10-08T12:56:25;15.50;99.90
5017;DHT22;2527;50.892;16.706;2023-10-08T12:59:00;15.50;99.90
5017;DHT22;2527;50.892;16.706;2023-10-08T13:01:29;15.50;99.90
5017;DHT22;2527;50.892;16.706;2023-10-08T13:03:55;15.50;99.90
5017;DHT22;2527;50.892;16.706;2023-10-08T13:06:33;15.50;99.90
5017;DHT22;2527;50.892;16.706;2023-10-08T13:08:59;15.50;99.90
5017;DHT22;2527;50.892;16.706;2023-10-08T13:11:26;15.50;99.90
5017;DHT22;2527;50.892;16.706;2023-10-08T13:13:52;15.50;99.90
5017;DHT22;2527;50.892;16.706;2023-10-08T13:16:19;15.40;99.90
5017;DHT22;2527;50.892;16.706;2023-10-08T13:18:48;15.40;99.90
5017;DHT22;2527;50.892;16.706;2023-10-08T13:21:14;15.40;99.90
5017;DHT22;2527;50.892;16.706;2023-10-08T13:23:40;15.40;99.90
5017;DHT22;2527;50.892;16.706;2023-10-08T13:26:06;15.40;99.90
5017;DHT22;2527;50.892;16.706;2023-10-08T13:28:35;15.40;99.90
5017;DHT22;2527;50.892;16.706;2023-10-08T13:31:05;15.40;99.90
5017;DHT22;2527;50.892;16.706;2023-10-08T13:33:37;15.40;99.90
5017;DHT22;2527;50.892;16.706;2023-10-08T13:36:05;15.40;99.90
5017;DHT22;2527;50.892;16.706;2023-10-08T13:38:34;15.30;99.90
5017;DHT22;2527;50.892;16.706;2023-10-08T13:41:02;15.30;99.90
5017;DHT22;2527;50.892;16.706;2023-10-08T13:43:32;15.30;99.90
5017;DHT22;2527;50.892;16.706;2023-10-08T13:46:01;15.20;99.90
5017;DHT22;2527;50.892;16.706;2023-10-08T13:48:33;15.20;99.90
5017;DHT22;2527;50.892;16.706;2023-10-08T13:50:59;15.20;99.90
5017;DHT22;2527;50.892;16.706;2023-10-08T13:53:25;15.20;99.90
5017;DHT22;2527;50.892;16.706;2023-10-08T13:55:58;15.20;99.90
5017;DHT22;2527;50.892;16.706;2023-10-08T13:58:27;15.20;99.90
5017;DHT22;2527;50.892;16.706;2023-10-08T14:00:55;15.10;99.90
5017;DHT22;2527;50.892;16.706;2023-10-08T14:03:21;15.10;99.90
5017;DHT22;2527;50.892;16.706;2023-10-08T14:05:47;15.10;99.90
5017;DHT22;2527;50.892;16.706;2023-10-08T14:08:17;15.10;99.90
5017;DHT22;2527;50.892;16.706;2023-10-08T14:10:43;15.10;99.90
5017;DHT22;2527;50.892;16.706;2023-10-08T14:13:10;15.10;99.90
5017;DHT22;2527;50.892;16.706;2023-10-08T14:15:35;16.30;99.90
5017;DHT22;2527;50.892;16.706;2023-10-08T14:18:10;15.10;99.90
5017;DHT22;2527;50.892;16.706;2023-10-08T14:20:41;15.10;99.90
5017;DHT22;2527;50.892;16.706;2023-10-08T14:23:08;15.10;99.90
5017;DHT22;2527;50.892;16.706;2023-10-08T14:25:34;15.00;99.90
5017;DHT22;2527;50.892;16.706;2023-10-08T14:28:07;15.00;99.90
5017;DHT22;2527;50.892;16.706;2023-10-08T14:30:41;15.00;99.90
5017;DHT22;2527;50.892;16.706;2023-10-08T14:33:07;15.00;99.90
5017;DHT22;2527;50.892;16.706;2023-10-08T14:35:38;15.00;99.90
5017;DHT22;2527;50.892;16.706;2023-10-08T14:38:22;15.00;99.90
5017;DHT22;2527;50.892;16.706;2023-10-08T14:41:06;15.00;99.90
5017;DHT22;2527;50.892;16.706;2023-10-08T14:43:50;14.90;99.90
5017;DHT22;2527;50.892;16.706;2023-10-08T14:46:17;14.90;99.90
5017;DHT22;2527;50.892;16.706;2023-10-08T14:48:44;14.90;99.90
5017;DHT22;2527;50.892;16.706;2023-10-08T14:51:12;14.90;99.90
5017;DHT22;2527;50.892;16.706;2023-10-08T14:53:44;14.90;99.90
5017;DHT22;2527;50.892;16.706;2023-10-08T14:56:10;14.80;99.90
5017;DHT22;2527;50.892;16.706;2023-10-08T14:58:35;14.80;99.90
5017;DHT22;2527;50.892;16.706;2023-10-08T15:01:01;14.90;99.90
5017;DHT22;2527;50.892;16.706;2023-10-08T15:03:27;14.90;99.90
5017;DHT22;2527;50.892;16.706;2023-10-08T15:05:52;14.90;99.90
5017;DHT22;2527;50.892;16.706;2023-10-08T15:08:20;14.90;99.90
5017;DHT22;2527;50.892;16.706;2023-10-08T15:10:45;14.90;99.90
5017;DHT22;2527;50.892;16.706;2023-10-08T15:13:12;14.80;99.90
5017;DHT22;2527;50.892;16.706;2023-10-08T15:15:38;14.80;99.90
5017;DHT22;2527;50.892;16.706;2023-10-08T15:18:07;14.80;99.90
5017;DHT22;2527;50.892;16.706;2023-10-08T15:20:37;14.80;99.90
5017;DHT22;2527;50.892;16.706;2023-10-08T15:23:06;14.80;99.90
5017;DHT22;2527;50.892;16.706;2023-10-08T15:25:31;14.80;99.90
5017;DHT22;2527;50.892;16.706;2023-10-08T15:27:57;14.80;99.90
5017;DHT22;2527;50.892;16.706;2023-10-08T15:30:24;14.80;99.90
5017;DHT22;2527;50.892;16.706;2023-10-08T15:32:51;14.70;99.90
5017;DHT22;2527;50.892;16.706;2023-10-08T15:35:18;14.70;99.90
5017;DHT22;2527;50.892;16.706;2023-10-08T15:37:50;14.70;99.90
5017;DHT22;2527;50.892;16.706;2023-10-08T15:40:16;14.60;99.90
5017;DHT22;2527;50.892;16.706;2023-10-08T15:42:49;12.90;99.90
5017;DHT22;2527;50.892;16.706;2023-10-08T15:45:20;15.10;99.90
5017;DHT22;2527;50.892;16.706;2023-10-08T15:47:47;14.50;99.90
5017;DHT22;2527;50.892;16.706;2023-10-08T15:50:14;14.50;99.90
5017;DHT22;2527;50.892;16.706;2023-10-08T15:52:40;14.50;99.90
5017;DHT22;2527;50.892;16.706;2023-10-08T15:55:07;14.50;99.90
5017;DHT22;2527;50.892;16.706;2023-10-08T15:57:37;14.40;99.90
5017;DHT22;2527;50.892;16.706;2023-10-08T16:00:03;14.40;99.90
5017;DHT22;2527;50.892;16.706;2023-10-08T16:02:29;14.40;99.90
5017;DHT22;2527;50.892;16.706;2023-10-08T16:04:54;14.30;99.90
5017;DHT22;2527;50.892;16.706;2023-10-08T16:07:20;14.30;99.90
5017;DHT22;2527;50.892;16.706;2023-10-08T16:09:46;16.10;99.90
5017;DHT22;2527;50.892;16.706;2023-10-08T16:12:13;12.30;99.90
5017;DHT22;2527;50.892;16.706;2023-10-08T16:14:38;14.20;99.90